Time;durP1;ratioP1;P1;durP2;ratioP2;P2;SDS_P1;SDS_P2;PMS_P1;PMS_P2;Temp;Humidity;BMP_temperature;BMP_pressure;BME280_temperature;BME280_humidity;BME280_pressure;Samples;Min_cycle;Max_cycle;Signal;HPM_P1;HPM_P2
2022/12/01 00:01:38;;;;;;;189.07;29.93;;;3.30;99.90;;;;;;4821049;29;20235;-57
2022/12/01 00:04:07;;;;;;;118.03;26.87;;;3.30;99.90;;;;;;4816653;29;20504;-57
2022/12/01 00:06:37;;;;;;;113.17;25.37;;;3.30;99.90;;;;;;4823633;29;20231;-56
2022/12/01 00:11:51;;;;;;;146.77;28.07;;;3.20;99.90;;;;;;4821193;29;20219;-56
2022/12/01 00:14:19;;;;;;;109.60;27.37;;;3.20;99.90;;;;;;4822696;29;20212;-57
2022/12/01 00:16:48;;;;;;;100.07;26.27;;;3.20;99.90;;;;;;4820707;29;20219;-57
2022/12/01 00:19:19;;;;;;;126.17;29.13;;;3.20;99.90;;;;;;4825004;29;22298;-57
2022/12/01 00:21:47;;;;;;;89.07;26.97;;;3.20;99.90;;;;;;4821568;29;20660;-57
2022/12/01 00:24:15;;;;;;;108.73;26.53;;;3.10;99.90;;;;;;4823149;29;20659;-57
2022/12/01 00:26:44;;;;;;;119.60;28.27;;;3.10;99.90;;;;;;4823179;29;20227;-57
2022/12/01 00:29:12;;;;;;;131.93;28.47;;;3.10;99.90;;;;;;4822515;29;22448;-56
2022/12/01 00:31:41;;;;;;;122.30;26.70;;;3.10;99.90;;;;;;4821362;29;20741;-56
2022/12/01 00:34:21;;;;;;;88.67;25.27;;;3.10;99.90;;;;;;4824187;29;20219;-57
2022/12/01 00:36:50;;;;;;;111.70;27.00;;;3.00;99.90;;;;;;4822814;29;20204;-55
2022/12/01 00:39:19;;;;;;;122.83;27.67;;;3.00;99.90;;;;;;4823753;29;20211;-58
2022/12/01 00:41:47;;;;;;;120.23;26.43;;;3.00;99.90;;;;;;4824539;29;20199;-56
2022/12/01 00:44:15;;;;;;;120.47;27.87;;;3.00;99.90;;;;;;4823057;29;20196;-56
2022/12/01 00:46:44;;;;;;;116.17;27.13;;;2.90;99.90;;;;;;4822220;29;20303;-56
2022/12/01 00:49:14;;;;;;;116.07;27.50;;;2.90;99.90;;;;;;4824328;29;20208;-56
2022/12/01 00:51:42;;;;;;;99.40;26.27;;;2.90;99.90;;;;;;4834578;29;20552;-56
2022/12/01 00:54:11;;;;;;;94.20;25.90;;;2.90;99.90;;;;;;4822994;29;20212;-57
2022/12/01 00:56:39;;;;;;;101.33;27.77;;;2.90;99.90;;;;;;4819305;29;20236;-56
2022/12/01 00:59:07;;;;;;;66.50;25.23;;;3.00;99.90;;;;;;4820530;29;20223;-57
2022/12/01 01:01:36;;;;;;;65.93;24.30;;;3.00;99.90;;;;;;4822588;29;20542;-57
2022/12/01 01:04:04;;;;;;;71.13;24.53;;;3.00;99.90;;;;;;4819864;29;20933;-56
2022/12/01 01:06:34;;;;;;;59.10;25.10;;;3.00;99.90;;;;;;4817309;29;20247;-57
2022/12/01 01:09:03;;;;;;;75.13;24.90;;;3.10;99.90;;;;;;4821349;29;20201;-56
2022/12/01 01:11:31;;;;;;;73.40;26.80;;;3.10;99.90;;;;;;4820662;29;20667;-57
2022/12/01 01:14:00;;;;;;;61.10;25.13;;;3.10;99.90;;;;;;4820485;29;20204;-57
2022/12/01 01:16:29;;;;;;;63.27;25.37;;;3.20;99.90;;;;;;4823092;29;20204;-57
2022/12/01 01:18:58;;;;;;;68.00;25.30;;;3.20;99.90;;;;;;4817287;29;20208;-57
2022/12/01 01:21:27;;;;;;;66.63;26.13;;;3.20;99.90;;;;;;4822367;29;21322;-57
2022/12/01 01:23:57;;;;;;;63.47;26.63;;;3.30;99.90;;;;;;4818340;29;20200;-57
2022/12/01 01:26:29;;;;;;;68.30;26.30;;;3.30;99.90;;;;;;4819687;29;20239;-56
2022/12/01 01:28:59;;;;;;;62.63;24.27;;;3.30;99.90;;;;;;4823389;29;20210;-56
2022/12/01 01:31:29;;;;;;;61.20;26.80;;;3.40;99.90;;;;;;4799801;29;20200;-56
2022/12/01 01:33:58;;;;;;;66.20;27.17;;;3.40;99.90;;;;;;4819331;29;21262;-56
2022/12/01 01:36:27;;;;;;;66.50;27.23;;;3.40;99.90;;;;;;4822156;29;20215;-56
2022/12/01 01:39:00;;;;;;;71.07;27.07;;;3.40;99.90;;;;;;4821871;29;21002;-57
2022/12/01 01:41:29;;;;;;;70.30;27.53;;;3.50;99.90;;;;;;4820224;29;20200;-56
2022/12/01 01:43:59;;;;;;;70.67;29.17;;;3.60;99.90;;;;;;4824599;29;21702;-57
2022/12/01 01:46:29;;;;;;;72.30;28.77;;;3.60;99.90;;;;;;4822331;29;20227;-57
2022/12/01 01:49:00;;;;;;;71.57;27.50;;;3.70;99.90;;;;;;4820604;29;20212;-57
2022/12/01 01:51:33;;;;;;;73.30;27.80;;;3.70;99.90;;;;;;4822910;29;20257;-57
2022/12/01 01:54:08;;;;;;;76.13;29.43;;;3.70;99.90;;;;;;4831839;29;21960;-56
2022/12/01 01:56:37;;;;;;;70.07;28.37;;;3.80;99.90;;;;;;4821386;29;20615;-56
2022/12/01 01:59:06;;;;;;;67.90;27.43;;;3.80;99.90;;;;;;4819380;29;20219;-57
2022/12/01 02:01:36;;;;;;;73.90;29.33;;;3.80;99.90;;;;;;4819894;29;21058;-57
2022/12/01 02:04:05;;;;;;;75.00;29.17;;;3.90;99.90;;;;;;4830829;29;20200;-57
2022/12/01 02:06:34;;;;;;;69.77;28.57;;;3.90;99.90;;;;;;4819054;29;20823;-56
2022/12/01 02:09:03;;;;;;;71.47;28.27;;;3.90;99.90;;;;;;4818889;29;20217;-56
2022/12/01 02:11:48;;;;;;;73.77;28.23;;;3.90;99.90;;;;;;4820971;29;21484;-56
2022/12/01 02:14:38;;;;;;;77.83;29.33;;;3.90;99.90;;;;;;4822772;29;20712;-57
2022/12/01 02:17:17;;;;;;;79.60;30.07;;;4.00;99.90;;;;;;4821565;29;20207;-57
2022/12/01 02:20:30;;;;;;;76.83;29.40;;;4.00;99.90;;;;;;4821012;29;20200;-57
2022/12/01 02:23:25;;;;;;;82.03;29.43;;;4.00;99.90;;;;;;4764879;29;20214;-56
2022/12/01 02:26:15;;;;;;;75.73;29.83;;;4.00;99.90;;;;;;4823530;29;20208;-56
2022/12/01 02:29:09;;;;;;;78.40;31.70;;;4.00;99.90;;;;;;4824634;29;20223;-57
2022/12/01 02:31:44;;;;;;;80.07;30.53;;;4.00;99.90;;;;;;4824798;29;20939;-57
2022/12/01 02:34:22;;;;;;;77.40;30.27;;;4.00;99.90;;;;;;4824419;29;20211;-57
2022/12/01 02:36:55;;;;;;;96.23;34.00;;;4.00;99.90;;;;;;4826510;29;20683;-57
2022/12/01 02:39:33;;;;;;;93.57;33.33;;;4.00;99.90;;;;;;4825388;29;20200;-55
2022/12/01 02:42:05;;;;;;;111.93;37.43;;;4.00;99.90;;;;;;4824522;29;20226;-56
2022/12/01 02:44:37;;;;;;;105.83;36.50;;;4.00;99.90;;;;;;4822774;29;20227;-56
2022/12/01 02:47:12;;;;;;;113.47;37.47;;;4.00;99.90;;;;;;4827754;29;20220;-57
2022/12/01 02:49:43;;;;;;;116.30;38.13;;;4.10;99.90;;;;;;4825129;29;20702;-56
2022/12/01 02:52:12;;;;;;;131.77;40.60;;;4.10;99.90;;;;;;4824332;29;20207;-57
2022/12/01 02:54:43;;;;;;;138.97;40.30;;;4.10;99.90;;;;;;4822883;29;20208;-57
2022/12/01 02:57:12;;;;;;;125.73;40.80;;;4.20;99.90;;;;;;4825658;29;20240;-56
2022/12/01 02:59:43;;;;;;;131.57;39.73;;;4.20;99.90;;;;;;4822154;29;20207;-56
2022/12/01 03:02:19;;;;;;;129.77;42.10;;;4.20;99.90;;;;;;4823035;29;20212;-57
2022/12/01 03:05:01;;;;;;;132.67;41.20;;;4.20;99.90;;;;;;4823823;29;20200;-58
2022/12/01 03:07:49;;;;;;;128.63;39.00;;;4.20;99.90;;;;;;4824409;29;20216;-57
2022/12/01 03:10:24;;;;;;;121.83;40.23;;;4.20;99.90;;;;;;4821597;29;20212;-56
2022/12/01 03:13:05;;;;;;;131.07;40.10;;;4.20;99.90;;;;;;4823781;29;20456;-57
2022/12/01 03:15:39;;;;;;;122.37;39.47;;;4.20;99.90;;;;;;4822119;29;20212;-57
2022/12/01 03:18:20;;;;;;;122.00;39.23;;;4.20;99.90;;;;;;4823265;29;20291;-57
2022/12/01 03:20:56;;;;;;;117.37;38.53;;;4.30;99.90;;;;;;4822440;29;20279;-57
2022/12/01 03:23:34;;;;;;;127.90;39.83;;;4.30;99.90;;;;;;4822900;29;20208;-57
2022/12/01 03:26:05;;;;;;;112.77;38.10;;;4.30;99.90;;;;;;4822120;29;20203;-56
2022/12/01 03:28:39;;;;;;;104.67;36.57;;;4.30;99.90;;;;;;4822283;29;20243;-57
2022/12/01 03:31:16;;;;;;;110.57;38.27;;;4.40;99.90;;;;;;4825940;29;20200;-56
2022/12/01 03:33:50;;;;;;;112.27;38.57;;;4.40;99.90;;;;;;4824126;29;20199;-57
2022/12/01 03:36:27;;;;;;;117.53;37.97;;;4.40;99.90;;;;;;4823597;29;20231;-57
2022/12/01 03:39:00;;;;;;;110.30;36.23;;;4.40;99.90;;;;;;4820776;29;20220;-56
2022/12/01 03:41:35;;;;;;;127.03;38.17;;;4.40;99.90;;;;;;4823243;29;20200;-56
2022/12/01 03:44:09;;;;;;;115.27;37.97;;;4.40;99.90;;;;;;4822665;29;20204;-57
2022/12/01 03:46:45;;;;;;;105.07;37.60;;;4.40;99.90;;;;;;4823461;29;20203;-57
2022/12/01 03:49:17;;;;;;;104.80;36.80;;;4.40;99.90;;;;;;4823627;29;20261;-57
2022/12/01 03:51:55;;;;;;;107.87;36.97;;;4.40;99.90;;;;;;4824649;29;20208;-57
2022/12/01 03:54:33;;;;;;;107.67;36.87;;;4.50;99.90;;;;;;4821203;29;20195;-57
2022/12/01 03:57:05;;;;;;;110.07;36.40;;;4.50;99.90;;;;;;4820527;29;20972;-57
2022/12/01 03:59:36;;;;;;;104.07;35.63;;;4.50;99.90;;;;;;4821701;29;20276;-57
2022/12/01 04:02:06;;;;;;;107.43;36.57;;;4.40;99.90;;;;;;4821389;29;20197;-57
2022/12/01 04:04:36;;;;;;;99.17;35.00;;;4.50;99.90;;;;;;4821480;29;20208;-57
2022/12/01 04:07:04;;;;;;;94.20;33.90;;;4.50;99.90;;;;;;4821652;29;21592;-57
2022/12/01 04:09:33;;;;;;;98.97;33.23;;;4.60;99.90;;;;;;4823899;29;20350;-57
2022/12/01 04:14:43;;;;;;;100.93;34.73;;;4.60;99.90;;;;;;4803442;29;20619;-57
2022/12/01 04:17:12;;;;;;;101.53;34.30;;;4.50;99.90;;;;;;4835601;29;20208;-57
2022/12/01 04:19:41;;;;;;;98.03;36.27;;;4.60;99.90;;;;;;4837138;29;20200;-57
2022/12/01 04:22:10;;;;;;;91.50;34.50;;;4.60;99.90;;;;;;4821866;29;20215;-57
2022/12/01 04:24:38;;;;;;;92.60;32.97;;;4.60;99.90;;;;;;4826096;29;20208;-56
2022/12/01 04:27:06;;;;;;;86.13;31.27;;;4.60;99.90;;;;;;4820955;29;20200;-57
2022/12/01 04:29:35;;;;;;;75.07;28.90;;;4.60;99.90;;;;;;4823675;29;20604;-57
2022/12/01 04:32:05;;;;;;;76.87;28.70;;;4.60;99.90;;;;;;4821152;29;20211;-57
2022/12/01 04:34:33;;;;;;;76.33;27.60;;;4.60;99.90;;;;;;4821956;29;20200;-57
2022/12/01 04:37:04;;;;;;;67.53;27.57;;;4.60;99.90;;;;;;4821693;29;20439;-57
2022/12/01 04:39:32;;;;;;;76.93;29.30;;;4.70;99.90;;;;;;4824256;29;20576;-57
2022/12/01 04:42:01;;;;;;;75.47;28.53;;;4.70;99.90;;;;;;4823645;29;20210;-57
2022/12/01 04:44:29;;;;;;;73.57;30.80;;;4.70;99.90;;;;;;4825681;29;20212;-57
2022/12/01 04:47:02;;;;;;;80.87;32.27;;;4.60;99.90;;;;;;4821915;29;20212;-57
2022/12/01 04:49:31;;;;;;;81.70;31.80;;;4.60;99.90;;;;;;4823530;29;20240;-57
2022/12/01 04:52:00;;;;;;;85.30;33.03;;;4.60;99.90;;;;;;4820192;29;20200;-57
2022/12/01 04:54:29;;;;;;;82.87;31.10;;;4.70;99.90;;;;;;4820469;29;20211;-57
2022/12/01 04:56:58;;;;;;;70.57;29.93;;;4.60;99.90;;;;;;4832927;29;20242;-57
2022/12/01 04:59:26;;;;;;;70.53;29.07;;;4.70;99.90;;;;;;4822284;29;20207;-57
2022/12/01 05:01:54;;;;;;;68.77;27.27;;;4.70;99.90;;;;;;4819535;29;20204;-57
2022/12/01 05:04:24;;;;;;;70.77;28.20;;;4.70;99.90;;;;;;4834672;29;20195;-57
2022/12/01 05:06:55;;;;;;;64.73;27.23;;;4.70;99.90;;;;;;4821891;29;20208;-57
2022/12/01 05:09:23;;;;;;;64.87;27.07;;;4.70;99.90;;;;;;4817589;29;20896;-57
2022/12/01 05:11:53;;;;;;;68.67;27.43;;;4.70;99.90;;;;;;4822131;29;20204;-55
2022/12/01 05:14:21;;;;;;;66.90;26.57;;;4.70;99.90;;;;;;4820882;29;20220;-57
2022/12/01 05:16:50;;;;;;;64.13;27.00;;;4.70;99.90;;;;;;4820755;29;20939;-56
2022/12/01 05:22:04;;;;;;;60.67;26.83;;;4.70;99.90;;;;;;4820749;29;20219;-56
2022/12/01 05:24:33;;;;;;;62.90;25.77;;;4.70;99.90;;;;;;4821858;29;20684;-57
2022/12/01 05:27:02;;;;;;;58.50;25.70;;;4.70;99.90;;;;;;4819584;29;20211;-57
2022/12/01 05:29:31;;;;;;;61.50;27.20;;;4.70;99.90;;;;;;4823114;29;20224;-56
2022/12/01 05:32:02;;;;;;;61.30;25.00;;;4.80;99.90;;;;;;4824021;29;20200;-57
2022/12/01 05:34:31;;;;;;;60.67;26.03;;;4.80;99.90;;;;;;4822353;29;20208;-57
2022/12/01 05:36:59;;;;;;;60.40;25.17;;;4.80;99.90;;;;;;4823825;29;21743;-57
2022/12/01 05:39:27;;;;;;;56.67;24.80;;;4.80;99.90;;;;;;4819909;29;20200;-57
2022/12/01 05:41:56;;;;;;;64.90;27.03;;;4.80;99.90;;;;;;4818772;29;20257;-57
2022/12/01 05:44:25;;;;;;;60.83;26.37;;;4.80;99.90;;;;;;4823205;29;20200;-57
2022/12/01 05:46:54;;;;;;;61.60;27.03;;;4.80;99.90;;;;;;4818678;29;20763;-57
2022/12/01 05:49:22;;;;;;;59.77;25.27;;;4.80;99.90;;;;;;4820188;29;20698;-57
2022/12/01 05:51:50;;;;;;;62.70;27.00;;;4.80;99.90;;;;;;4819268;29;20219;-58
2022/12/01 05:54:19;;;;;;;61.63;26.00;;;4.80;99.90;;;;;;4817602;29;20253;-57
2022/12/01 05:56:47;;;;;;;64.23;26.90;;;4.80;99.90;;;;;;4819697;29;20887;-57
2022/12/01 05:59:15;;;;;;;65.97;27.60;;;4.80;99.90;;;;;;4819153;29;20493;-57
2022/12/01 06:01:45;;;;;;;62.77;27.13;;;4.80;99.90;;;;;;4820415;29;20197;-57
2022/12/01 06:04:13;;;;;;;64.10;27.03;;;4.70;99.90;;;;;;4824447;29;20208;-56
2022/12/01 06:06:41;;;;;;;61.37;26.30;;;4.70;99.90;;;;;;4827482;29;20209;-57
2022/12/01 06:09:10;;;;;;;60.50;25.63;;;4.70;99.90;;;;;;4821177;29;20228;-57
2022/12/01 06:11:38;;;;;;;61.27;25.53;;;4.70;99.90;;;;;;4823291;29;20873;-57
2022/12/01 06:14:09;;;;;;;62.17;26.30;;;4.70;99.90;;;;;;4821956;29;20322;-57
2022/12/01 06:16:37;;;;;;;68.03;27.33;;;4.70;99.90;;;;;;4822469;29;20227;-57
2022/12/01 06:19:07;;;;;;;61.37;25.80;;;4.70;99.90;;;;;;4818641;29;20200;-56
2022/12/01 06:21:35;;;;;;;66.50;27.27;;;4.70;99.90;;;;;;4821635;29;20204;-57
2022/12/01 06:24:04;;;;;;;59.97;25.67;;;4.60;99.90;;;;;;4824126;29;20291;-57
2022/12/01 06:26:32;;;;;;;63.50;25.73;;;4.60;99.90;;;;;;4824623;29;20200;-57
2022/12/01 06:29:00;;;;;;;60.87;26.53;;;4.70;99.90;;;;;;4819013;29;20732;-56
2022/12/01 06:31:29;;;;;;;62.80;26.63;;;4.70;99.90;;;;;;4836191;29;20557;-54
2022/12/01 06:33:57;;;;;;;62.97;26.33;;;4.60;99.90;;;;;;4826364;29;20304;-57
2022/12/01 06:36:26;;;;;;;64.10;27.17;;;4.60;99.90;;;;;;4827425;29;20213;-57
2022/12/01 06:38:55;;;;;;;62.67;26.33;;;4.60;99.90;;;;;;4834919;29;20198;-57
2022/12/01 06:41:23;;;;;;;60.87;26.03;;;4.60;99.90;;;;;;4824542;29;20215;-57
2022/12/01 06:43:54;;;;;;;64.63;26.87;;;4.70;99.90;;;;;;4824414;29;20210;-57
2022/12/01 06:46:22;;;;;;;61.70;25.53;;;4.70;99.90;;;;;;4833325;29;20208;-57
2022/12/01 06:48:51;;;;;;;62.90;26.40;;;4.60;99.90;;;;;;4835579;29;20212;-57
2022/12/01 06:51:20;;;;;;;66.23;27.53;;;4.60;99.90;;;;;;4837705;29;20211;-57
2022/12/01 06:53:53;;;;;;;62.80;26.97;;;4.60;99.90;;;;;;4834440;29;20264;-57
2022/12/01 06:56:22;;;;;;;68.70;27.40;;;4.60;99.90;;;;;;4836372;29;20594;-57
2022/12/01 06:58:52;;;;;;;62.33;26.07;;;4.70;99.90;;;;;;4835302;29;20208;-57
2022/12/01 07:01:20;;;;;;;63.37;26.63;;;4.60;99.90;;;;;;4827794;29;20214;-57
2022/12/01 07:03:49;;;;;;;67.80;28.20;;;4.60;99.90;;;;;;4836238;29;20231;-57
2022/12/01 07:06:18;;;;;;;62.23;26.80;;;4.60;99.90;;;;;;4837989;29;20660;-57
2022/12/01 07:08:47;;;;;;;67.70;27.90;;;4.60;99.90;;;;;;4834175;29;20204;-57
2022/12/01 07:11:16;;;;;;;69.30;28.27;;;4.60;99.90;;;;;;4837445;29;20224;-57
2022/12/01 07:13:45;;;;;;;63.80;27.07;;;4.60;99.90;;;;;;4841652;29;20200;-57
2022/12/01 07:16:13;;;;;;;69.37;27.60;;;4.60;99.90;;;;;;4842440;29;20548;-57
2022/12/01 07:18:43;;;;;;;66.73;27.50;;;4.60;99.90;;;;;;4838243;29;20613;-57
2022/12/01 07:21:13;;;;;;;77.43;27.77;;;4.60;99.90;;;;;;4841306;29;20208;-57
2022/12/01 07:23:42;;;;;;;66.10;27.47;;;4.60;99.90;;;;;;4841036;29;20223;-57
2022/12/01 07:26:12;;;;;;;65.33;27.20;;;4.60;99.90;;;;;;4841627;29;20200;-57
2022/12/01 07:28:42;;;;;;;68.17;28.53;;;4.60;99.90;;;;;;4841990;29;20203;-57
2022/12/01 07:31:13;;;;;;;72.00;28.33;;;4.60;99.90;;;;;;4841849;29;20760;-57
2022/12/01 07:33:41;;;;;;;69.20;27.90;;;4.60;99.90;;;;;;4841203;29;20212;-57
2022/12/01 07:36:10;;;;;;;71.50;28.73;;;4.60;99.90;;;;;;4837585;29;20241;-57
2022/12/01 07:38:39;;;;;;;75.03;29.37;;;4.60;99.90;;;;;;4838934;29;20204;-56
2022/12/01 07:41:10;;;;;;;75.23;28.63;;;4.60;99.90;;;;;;4839278;29;20200;-57
2022/12/01 07:43:38;;;;;;;79.10;28.90;;;4.60;99.90;;;;;;4840406;29;20193;-57
2022/12/01 07:46:10;;;;;;;76.63;29.33;;;4.70;99.90;;;;;;4839107;29;20202;-57
2022/12/01 07:48:40;;;;;;;78.77;28.93;;;4.70;99.90;;;;;;4840251;29;20238;-57
2022/12/01 07:51:11;;;;;;;82.17;30.43;;;4.70;99.90;;;;;;4837283;29;20216;-57
2022/12/01 07:53:39;;;;;;;74.33;29.30;;;4.70;99.90;;;;;;4836278;29;20204;-57
2022/12/01 07:56:08;;;;;;;73.27;29.93;;;4.70;99.90;;;;;;4839461;29;20235;-57
2022/12/01 07:58:37;;;;;;;82.20;31.97;;;4.70;99.90;;;;;;4834894;29;20200;-56
2022/12/01 08:01:11;;;;;;;79.67;32.37;;;4.70;99.90;;;;;;4841979;29;20285;-57
2022/12/01 08:03:41;;;;;;;78.33;32.40;;;4.80;99.90;;;;;;4840837;29;20204;-57
2022/12/01 08:06:10;;;;;;;89.07;32.73;;;4.80;99.90;;;;;;4837077;29;20838;-57
2022/12/01 08:08:39;;;;;;;83.87;32.70;;;4.80;99.90;;;;;;4836323;29;20290;-57
2022/12/01 08:11:11;;;;;;;82.10;32.60;;;4.90;99.90;;;;;;4840972;29;20284;-57
2022/12/01 08:13:39;;;;;;;88.60;33.17;;;4.80;99.90;;;;;;4840230;29;20192;-57
2022/12/01 08:16:11;;;;;;;84.17;32.43;;;4.90;99.90;;;;;;4833000;29;20211;-57
2022/12/01 08:18:41;;;;;;;91.53;34.60;;;4.90;99.90;;;;;;4840235;29;20231;-57
2022/12/01 08:21:11;;;;;;;91.40;34.80;;;4.90;99.90;;;;;;4839364;29;20192;-57
2022/12/01 08:23:40;;;;;;;88.30;34.40;;;4.90;99.90;;;;;;4835398;29;20204;-57
2022/12/01 08:26:11;;;;;;;84.33;33.13;;;5.00;99.90;;;;;;4841584;29;20381;-57
2022/12/01 08:28:40;;;;;;;93.00;33.80;;;5.00;99.90;;;;;;4838659;29;20203;-57
2022/12/01 08:31:12;;;;;;;84.73;33.83;;;5.00;99.90;;;;;;4837786;29;20293;-56
2022/12/01 08:33:44;;;;;;;87.10;33.87;;;5.00;99.90;;;;;;4836653;29;20261;-57
2022/12/01 08:36:12;;;;;;;87.30;32.57;;;5.00;99.90;;;;;;4840206;29;20207;-57
2022/12/01 08:38:43;;;;;;;86.33;33.43;;;5.10;99.90;;;;;;4838641;29;20207;-57
2022/12/01 08:41:12;;;;;;;90.60;33.70;;;5.10;99.90;;;;;;4838376;29;20200;-57
2022/12/01 08:43:43;;;;;;;84.57;33.17;;;5.10;99.90;;;;;;4836748;29;20227;-56
2022/12/01 08:46:33;;;;;;;88.63;33.40;;;5.20;99.90;;;;;;4834871;29;20557;-57
2022/12/01 08:49:03;;;;;;;86.00;33.80;;;5.20;99.90;;;;;;4840986;29;20211;-57
2022/12/01 08:51:32;;;;;;;85.77;32.83;;;5.20;99.90;;;;;;4834406;29;20576;-57
2022/12/01 08:54:00;;;;;;;87.73;33.13;;;5.20;99.90;;;;;;4837056;29;20216;-57
2022/12/01 08:56:30;;;;;;;95.93;35.07;;;5.20;99.90;;;;;;4836029;29;20626;-57
2022/12/01 08:58:59;;;;;;;85.57;33.33;;;5.30;99.90;;;;;;4837985;29;20556;-57
2022/12/01 09:01:29;;;;;;;91.37;34.73;;;5.30;99.90;;;;;;4836521;29;20203;-57
2022/12/01 09:04:07;;;;;;;90.53;34.73;;;5.40;99.90;;;;;;4830800;29;20268;-57
2022/12/01 09:06:40;;;;;;;91.13;34.60;;;5.40;99.90;;;;;;4838578;29;20243;-57
2022/12/01 09:09:10;;;;;;;87.73;34.10;;;5.50;99.90;;;;;;4839360;29;20668;-56
2022/12/01 09:11:42;;;;;;;90.70;33.97;;;5.50;99.90;;;;;;4841328;29;20224;-56
2022/12/01 09:14:11;;;;;;;89.80;34.30;;;5.50;99.90;;;;;;4835293;29;20215;-57
2022/12/01 09:16:41;;;;;;;91.83;34.43;;;5.50;99.90;;;;;;4839381;29;20549;-57
2022/12/01 09:19:10;;;;;;;87.47;34.00;;;5.60;99.90;;;;;;4836149;29;20200;-57
2022/12/01 09:21:42;;;;;;;83.23;33.40;;;5.60;99.90;;;;;;4837674;29;20249;-57
2022/12/01 09:24:11;;;;;;;88.40;33.63;;;5.70;99.90;;;;;;4838770;29;20208;-56
2022/12/01 09:26:40;;;;;;;81.20;32.93;;;5.70;99.90;;;;;;4839787;29;20192;-56
2022/12/01 09:29:10;;;;;;;78.47;32.30;;;5.70;99.90;;;;;;4838769;29;20534;-57
2022/12/01 09:31:40;;;;;;;81.47;32.50;;;5.70;99.90;;;;;;4835667;29;20235;-57
2022/12/01 09:34:11;;;;;;;89.70;34.67;;;5.80;99.90;;;;;;4832651;29;20290;-57
2022/12/01 09:36:41;;;;;;;79.67;32.37;;;5.70;99.90;;;;;;4840426;29;20227;-57
2022/12/01 09:39:14;;;;;;;82.00;34.17;;;5.70;99.90;;;;;;4835768;29;20227;-57
2022/12/01 09:41:48;;;;;;;84.20;32.00;;;5.70;99.90;;;;;;4832280;29;20192;-57
2022/12/01 09:44:39;;;;;;;79.93;31.80;;;5.70;99.90;;;;;;4834139;29;20211;-58
2022/12/01 09:47:17;;;;;;;73.97;30.90;;;5.70;99.90;;;;;;4841767;29;20260;-57
2022/12/01 09:49:53;;;;;;;76.70;32.17;;;5.70;99.90;;;;;;4840739;29;20354;-57
2022/12/01 09:52:24;;;;;;;79.63;30.50;;;5.70;99.90;;;;;;4839866;29;20219;-57
2022/12/01 09:54:54;;;;;;;78.80;32.47;;;5.80;99.90;;;;;;4837201;29;20207;-57
2022/12/01 09:57:29;;;;;;;79.27;33.77;;;5.80;99.90;;;;;;4840428;29;20240;-57
2022/12/01 10:00:01;;;;;;;72.40;30.97;;;5.90;99.90;;;;;;4839799;29;20210;-56
2022/12/01 10:02:35;;;;;;;69.03;30.17;;;5.90;99.90;;;;;;4843676;29;20200;-58
2022/12/01 10:05:12;;;;;;;71.17;30.53;;;5.90;99.90;;;;;;4834467;29;20282;-57
2022/12/01 10:07:46;;;;;;;72.83;31.00;;;5.90;99.90;;;;;;4841645;29;20724;-57
2022/12/01 10:10:17;;;;;;;74.10;29.60;;;5.90;99.90;;;;;;4838016;29;20307;-57
2022/12/01 10:12:47;;;;;;;66.83;29.33;;;6.00;99.90;;;;;;4840160;29;20359;-57
2022/12/01 10:15:27;;;;;;;69.17;29.57;;;6.00;99.90;;;;;;4842746;29;20197;-57
2022/12/01 10:18:05;;;;;;;69.90;29.60;;;6.00;99.90;;;;;;4840114;29;20215;-57
2022/12/01 10:20:41;;;;;;;64.90;28.33;;;6.00;99.90;;;;;;4839383;29;20200;-57
2022/12/01 10:23:28;;;;;;;66.37;28.07;;;6.10;99.90;;;;;;4836898;29;20569;-57
2022/12/01 10:25:58;;;;;;;65.23;27.77;;;6.10;99.90;;;;;;4831826;29;20207;-58
2022/12/01 10:28:52;;;;;;;54.77;26.43;;;6.10;99.90;;;;;;4842309;29;20211;-57
2022/12/01 10:31:26;;;;;;;72.83;32.40;;;6.10;99.90;;;;;;4835436;29;20224;-57
2022/12/01 10:34:01;;;;;;;63.90;28.83;;;6.20;99.90;;;;;;4840703;29;20279;-57
2022/12/01 10:36:32;;;;;;;60.87;29.03;;;6.20;99.90;;;;;;4838176;29;20567;-56
2022/12/01 10:39:01;;;;;;;59.40;27.50;;;6.20;99.90;;;;;;4838879;29;20201;-57
2022/12/01 10:41:33;;;;;;;62.23;28.03;;;6.30;99.90;;;;;;4839992;29;20204;-57
2022/12/01 10:44:05;;;;;;;59.80;27.67;;;6.30;99.90;;;;;;4839652;29;20211;-57
2022/12/01 10:46:40;;;;;;;61.23;27.83;;;6.30;99.90;;;;;;4839208;29;20212;-56
2022/12/01 10:49:13;;;;;;;59.57;28.17;;;6.30;99.90;;;;;;4840735;29;20504;-57
2022/12/01 10:51:57;;;;;;;58.33;27.67;;;6.40;99.90;;;;;;4838419;29;20227;-57
2022/12/01 10:54:33;;;;;;;55.93;26.67;;;6.40;99.90;;;;;;4836921;29;21826;-57
2022/12/01 10:57:03;;;;;;;63.10;28.43;;;6.40;99.90;;;;;;4842501;29;20235;-57
2022/12/01 10:59:35;;;;;;;63.67;28.33;;;6.40;99.90;;;;;;4839525;29;20200;-57
2022/12/01 11:02:14;;;;;;;56.83;26.67;;;6.40;99.90;;;;;;4840287;29;20224;-57
2022/12/01 11:04:51;;;;;;;52.77;26.23;;;6.50;99.90;;;;;;4839706;29;20451;-57
2022/12/01 11:07:22;;;;;;;61.13;27.10;;;6.50;99.90;;;;;;4836064;29;20208;-58
2022/12/01 11:10:08;;;;;;;62.20;27.87;;;6.50;99.90;;;;;;4840321;29;20211;-57
2022/12/01 11:12:36;;;;;;;53.77;26.57;;;6.50;99.90;;;;;;4839736;29;20224;-57
2022/12/01 11:15:06;;;;;;;60.00;27.50;;;6.50;99.90;;;;;;4840684;29;20203;-57
2022/12/01 11:17:38;;;;;;;58.20;26.23;;;6.60;99.90;;;;;;4838958;29;20200;-57
2022/12/01 11:20:31;;;;;;;56.77;26.43;;;6.70;99.90;;;;;;4840010;29;20214;-57
2022/12/01 11:23:24;;;;;;;60.97;27.53;;;6.70;99.90;;;;;;4838718;29;20207;-57
2022/12/01 11:25:58;;;;;;;55.90;26.17;;;6.70;99.90;;;;;;4834378;29;20228;-57
2022/12/01 11:28:28;;;;;;;58.53;25.73;;;6.70;99.90;;;;;;4833459;29;20722;-57
2022/12/01 11:30:58;;;;;;;55.40;26.07;;;6.70;99.90;;;;;;4853314;29;20217;-58
2022/12/01 11:33:28;;;;;;;57.43;25.97;;;6.60;99.90;;;;;;4836399;29;20224;-57
2022/12/01 11:35:57;;;;;;;53.33;25.97;;;6.70;99.90;;;;;;4840893;29;20212;-57
2022/12/01 11:38:33;;;;;;;61.70;25.30;;;6.70;99.90;;;;;;4839029;29;20300;-57
2022/12/01 11:41:01;;;;;;;54.90;24.90;;;6.70;99.90;;;;;;4841397;29;20530;-57
2022/12/01 11:43:32;;;;;;;52.83;26.20;;;6.70;99.90;;;;;;4837742;29;20200;-58
2022/12/01 11:46:04;;;;;;;51.67;24.67;;;6.80;99.90;;;;;;4839356;29;20200;-57
2022/12/01 11:48:35;;;;;;;53.37;24.23;;;6.80;99.90;;;;;;4839326;29;20220;-57
2022/12/01 11:51:07;;;;;;;54.13;24.17;;;6.80;99.90;;;;;;4839244;29;20862;-57
2022/12/01 11:53:38;;;;;;;54.30;26.07;;;6.80;99.90;;;;;;4837500;29;20599;-57
2022/12/01 11:56:21;;;;;;;57.43;26.03;;;6.80;99.90;;;;;;4838156;29;20240;-57
2022/12/01 11:58:51;;;;;;;59.60;27.60;;;6.90;99.90;;;;;;4837107;29;20231;-57
2022/12/01 12:01:30;;;;;;;49.80;24.70;;;7.00;99.90;;;;;;4838989;29;20298;-56
2022/12/01 12:04:10;;;;;;;53.13;24.00;;;6.90;99.90;;;;;;4849095;29;20648;-57
2022/12/01 12:06:46;;;;;;;49.03;23.40;;;6.90;99.90;;;;;;4836014;29;20211;-57
2022/12/01 12:09:31;;;;;;;52.37;24.03;;;7.00;99.90;;;;;;4838464;29;20230;-57
2022/12/01 12:12:10;;;;;;;58.23;26.80;;;7.10;99.90;;;;;;4838959;29;20208;-57
2022/12/01 12:14:50;;;;;;;62.07;27.53;;;7.20;99.90;;;;;;4838813;29;20230;-56
2022/12/01 12:17:29;;;;;;;62.27;28.90;;;7.20;99.90;;;;;;4840101;29;20208;-57
2022/12/01 12:20:36;;;;;;;60.20;28.70;;;7.10;99.90;;;;;;5139136;27;20553;-57
2022/12/01 12:23:25;;;;;;;62.27;28.97;;;7.10;99.90;;;;;;5123623;27;20202;-57
2022/12/01 12:26:03;;;;;;;65.30;29.37;;;7.10;99.90;;;;;;5135542;27;20198;-57
2022/12/01 12:28:43;;;;;;;57.57;29.00;;;7.10;99.90;;;;;;5119117;28;20183;-58
2022/12/01 12:31:21;;;;;;;58.17;28.60;;;7.00;99.90;;;;;;5121381;27;20194;-58
2022/12/01 12:34:18;;;;;;;59.17;29.03;;;7.00;99.90;;;;;;5115761;27;20649;-58
2022/12/01 12:36:59;;;;;;;58.53;29.07;;;7.00;99.90;;;;;;5123479;27;20190;-58
2022/12/01 12:39:47;;;;;;;61.70;29.53;;;7.00;99.90;;;;;;5122282;28;20206;-58
2022/12/01 12:42:27;;;;;;;60.77;30.03;;;7.00;99.90;;;;;;5123763;28;20222;-56
2022/12/01 12:45:04;;;;;;;61.83;29.30;;;7.10;99.90;;;;;;5121004;27;20194;-58
2022/12/01 12:47:44;;;;;;;58.00;29.17;;;7.10;99.90;;;;;;5123468;27;20217;-58
2022/12/01 12:50:23;;;;;;;61.17;29.90;;;7.20;99.90;;;;;;5124791;27;20190;-58
2022/12/01 12:52:59;;;;;;;58.53;28.40;;;7.30;99.90;;;;;;5124646;27;20198;-58
2022/12/01 12:55:33;;;;;;;57.77;27.27;;;7.30;99.90;;;;;;5125155;27;20194;-58
2022/12/01 12:58:08;;;;;;;58.20;26.23;;;7.20;99.90;;;;;;5119261;27;20544;-58
2022/12/01 13:00:44;;;;;;;49.47;25.60;;;7.30;99.90;;;;;;5120517;28;20232;-58
2022/12/01 13:03:19;;;;;;;50.80;26.03;;;7.40;99.90;;;;;;5125659;28;20640;-58
2022/12/01 13:05:54;;;;;;;46.63;24.67;;;7.50;99.90;;;;;;5122024;28;20193;-58
2022/12/01 13:08:27;;;;;;;48.90;25.10;;;7.40;99.90;;;;;;5124361;27;20205;-59
2022/12/01 13:10:59;;;;;;;48.40;24.57;;;7.40;99.90;;;;;;5123506;27;20198;-58